Time;durP1;ratioP1;P1;durP2;ratioP2;P2;SDS_P1;SDS_P2;PMS_P1;PMS_P2;Temp;Humidity;BMP_temperature;BMP_pressure;BME280_temperature;BME280_humidity;BME280_pressure;Samples;Min_cycle;Max_cycle;Signal;HPM_P1;HPM_P2
2023/03/03 00:00:56;;;;;;;5.32;2.10;;;17.60;34.40;;;;;;5072743;28;20186;-63
2023/03/03 00:03:25;;;;;;;3.25;1.90;;;17.60;34.40;;;;;;5072605;28;20214;-63
2023/03/03 00:05:53;;;;;;;2.95;1.77;;;17.60;34.40;;;;;;5072258;28;20232;-63
2023/03/03 00:08:22;;;;;;;4.80;1.98;;;17.60;34.40;;;;;;5072415;28;20276;-61
2023/03/03 00:10:50;;;;;;;3.70;1.90;;;17.60;34.40;;;;;;5072347;28;20286;-61
2023/03/03 00:13:20;;;;;;;3.63;1.85;;;17.60;34.40;;;;;;5072482;28;20267;-64
2023/03/03 00:15:47;;;;;;;5.07;1.95;;;17.50;34.30;;;;;;5072527;28;20657;-64
2023/03/03 00:18:22;;;;;;;5.47;1.75;;;17.60;34.40;;;;;;5072168;28;20692;-63
2023/03/03 00:20:53;;;;;;;3.83;1.80;;;17.60;34.50;;;;;;5072259;28;20312;-62
2023/03/03 00:23:30;;;;;;;5.30;2.08;;;17.60;34.40;;;;;;5072357;28;20355;-61
2023/03/03 00:25:58;;;;;;;4.47;1.95;;;17.50;34.30;;;;;;5071893;28;20277;-61
2023/03/03 00:28:28;;;;;;;4.32;1.90;;;17.50;34.30;;;;;;5072214;28;20300;-62
2023/03/03 00:30:57;;;;;;;4.38;1.90;;;17.50;34.30;;;;;;5072778;28;20187;-61
2023/03/03 00:33:32;;;;;;;5.10;1.75;;;17.50;34.30;;;;;;5078654;28;20268;-61
2023/03/03 00:36:20;;;;;;;4.90;1.98;;;17.50;34.30;;;;;;5078887;28;20251;-63
2023/03/03 00:38:50;;;;;;;4.70;1.98;;;17.50;34.30;;;;;;5078893;28;20215;-62
2023/03/03 00:41:22;;;;;;;3.08;2.00;;;17.50;34.30;;;;;;5078558;28;20545;-61
2023/03/03 00:43:50;;;;;;;4.72;1.95;;;17.50;34.30;;;;;;5078613;28;20711;-62
2023/03/03 00:46:19;;;;;;;3.60;1.70;;;17.50;34.30;;;;;;5078880;28;20653;-62
2023/03/03 00:48:47;;;;;;;3.75;1.90;;;17.50;34.40;;;;;;5078414;28;20234;-63
2023/03/03 00:51:26;;;;;;;4.18;2.08;;;17.50;34.30;;;;;;5078476;28;20182;-61
2023/03/03 00:53:55;;;;;;;4.80;1.83;;;17.50;34.40;;;;;;5078924;28;20210;-63
2023/03/03 00:56:22;;;;;;;5.03;2.03;;;17.40;34.30;;;;;;5078707;28;20252;-63
2023/03/03 00:58:50;;;;;;;3.72;1.77;;;17.40;34.30;;;;;;5078564;28;20274;-61
2023/03/03 01:01:18;;;;;;;5.68;1.92;;;17.40;34.30;;;;;;5078697;28;20245;-61
2023/03/03 01:03:45;;;;;;;5.43;1.90;;;17.40;34.30;;;;;;5078269;28;20214;-62
2023/03/03 01:06:14;;;;;;;6.32;1.77;;;17.40;34.30;;;;;;5078717;28;20191;-64
2023/03/03 01:08:41;;;;;;;4.20;1.75;;;17.40;34.30;;;;;;5078634;28;20331;-62
2023/03/03 01:11:15;;;;;;;4.43;2.20;;;17.40;34.30;;;;;;5078654;28;20240;-63
2023/03/03 01:13:44;;;;;;;4.55;2.20;;;17.40;34.30;;;;;;5078224;28;20704;-61
2023/03/03 01:16:11;;;;;;;6.93;2.22;;;17.40;34.30;;;;;;5078632;28;20259;-62
2023/03/03 01:18:40;;;;;;;4.55;1.88;;;17.40;34.30;;;;;;5078539;28;20276;-61
2023/03/03 01:21:07;;;;;;;4.38;2.20;;;17.40;34.30;;;;;;5078322;28;20295;-61
2023/03/03 01:23:35;;;;;;;4.72;1.80;;;17.40;34.30;;;;;;5078518;28;20279;-61
2023/03/03 01:26:03;;;;;;;4.13;2.08;;;17.40;34.30;;;;;;5078117;28;20648;-62
2023/03/03 01:28:32;;;;;;;4.63;2.20;;;17.40;34.30;;;;;;5078195;28;20753;-60
2023/03/03 01:31:02;;;;;;;3.97;2.13;;;17.40;34.30;;;;;;5078017;28;20197;-62
2023/03/03 01:33:30;;;;;;;4.97;2.30;;;17.40;34.30;;;;;;5078182;28;20210;-61
2023/03/03 01:35:57;;;;;;;3.60;1.73;;;17.40;34.30;;;;;;5078171;28;20691;-61
2023/03/03 01:38:24;;;;;;;5.53;2.10;;;17.40;34.30;;;;;;5078142;28;20223;-62
2023/03/03 01:40:57;;;;;;;4.25;1.60;;;17.30;34.20;;;;;;5078380;28;20608;-63
2023/03/03 01:43:27;;;;;;;4.60;2.10;;;17.40;34.30;;;;;;5075582;28;20287;-61
2023/03/03 01:46:37;;;;;;;4.28;1.80;;;17.40;34.30;;;;;;5074905;28;20191;-62
2023/03/03 01:49:12;;;;;;;6.57;2.20;;;17.30;34.20;;;;;;5012806;28;20299;-62
2023/03/03 01:51:47;;;;;;;3.90;1.70;;;17.40;34.40;;;;;;5012734;28;20639;-64
2023/03/03 01:54:19;;;;;;;3.25;1.83;;;17.40;34.40;;;;;;5012841;28;20221;-62
2023/03/03 01:56:47;;;;;;;3.28;1.77;;;17.40;34.40;;;;;;5012652;28;20186;-62
2023/03/03 01:59:17;;;;;;;2.08;1.50;;;17.40;34.40;;;;;;5012806;28;20217;-64
2023/03/03 02:01:47;;;;;;;4.70;2.05;;;17.30;34.40;;;;;;5012372;28;20189;-62
2023/03/03 02:04:14;;;;;;;5.82;1.98;;;17.30;34.40;;;;;;5012713;28;20217;-62
2023/03/03 02:06:45;;;;;;;5.47;1.95;;;17.30;34.40;;;;;;5012504;28;20235;-62
2023/03/03 02:09:21;;;;;;;3.92;2.15;;;17.30;34.40;;;;;;5012327;28;20233;-63
2023/03/03 02:11:52;;;;;;;3.78;1.92;;;17.30;34.40;;;;;;5012276;28;20235;-60
2023/03/03 02:14:19;;;;;;;4.22;1.60;;;17.30;34.50;;;;;;5012312;28;20217;-61
2023/03/03 02:16:47;;;;;;;3.42;1.83;;;17.30;34.50;;;;;;5012371;28;20194;-61
2023/03/03 02:19:24;;;;;;;3.72;1.88;;;17.30;34.50;;;;;;5012335;28;20221;-60
2023/03/03 02:21:52;;;;;;;6.45;1.88;;;17.30;34.50;;;;;;5012231;28;20193;-62
2023/03/03 02:24:26;;;;;;;4.65;2.08;;;17.30;34.50;;;;;;5012149;28;20275;-61
2023/03/03 02:26:55;;;;;;;6.93;2.03;;;17.20;34.50;;;;;;5068434;28;20194;-63
2023/03/03 02:29:22;;;;;;;4.28;1.73;;;17.30;34.60;;;;;;5074176;28;20230;-61
2023/03/03 02:31:49;;;;;;;5.22;2.17;;;17.20;34.50;;;;;;5074309;28;20202;-62
2023/03/03 02:34:17;;;;;;;5.50;1.77;;;17.20;34.50;;;;;;5074308;28;20272;-60
2023/03/03 02:36:44;;;;;;;3.20;1.90;;;17.30;34.70;;;;;;5074214;28;20191;-62
2023/03/03 02:39:17;;;;;;;4.55;1.90;;;17.20;34.60;;;;;;5074305;28;20272;-63
2023/03/03 02:41:52;;;;;;;5.80;2.10;;;17.20;34.60;;;;;;5073724;28;20183;-63
2023/03/03 02:44:22;;;;;;;4.07;1.85;;;17.20;34.70;;;;;;5074045;28;20302;-62
2023/03/03 02:46:51;;;;;;;3.05;1.83;;;17.20;34.60;;;;;;5073953;28;20221;-63
2023/03/03 02:49:20;;;;;;;3.83;2.08;;;17.20;34.60;;;;;;5073922;28;20292;-62
2023/03/03 02:51:47;;;;;;;5.60;1.80;;;17.20;35.30;;;;;;5073572;28;20557;-61
2023/03/03 02:54:16;;;;;;;3.92;1.70;;;17.20;34.70;;;;;;5073926;28;20219;-61
2023/03/03 02:56:43;;;;;;;3.22;1.70;;;17.20;34.70;;;;;;5073447;28;20237;-61
2023/03/03 02:59:11;;;;;;;5.03;2.13;;;17.20;34.70;;;;;;5073941;28;20276;-61
2023/03/03 03:01:40;;;;;;;4.28;1.88;;;17.10;34.70;;;;;;5073610;28;20194;-61
2023/03/03 03:04:09;;;;;;;5.38;1.92;;;17.20;34.80;;;;;;5073924;28;20608;-61
2023/03/03 03:06:36;;;;;;;5.13;1.58;;;17.20;34.80;;;;;;5073391;28;20183;-61
2023/03/03 03:09:04;;;;;;;5.50;1.77;;;17.20;34.70;;;;;;5073254;28;20586;-61
2023/03/03 03:11:31;;;;;;;2.70;1.77;;;17.20;34.80;;;;;;5073530;28;20183;-63
2023/03/03 03:13:58;;;;;;;4.10;1.63;;;17.20;34.70;;;;;;5073066;28;20784;-62
2023/03/03 03:16:25;;;;;;;4.75;1.90;;;17.10;34.70;;;;;;5073080;28;20214;-62
2023/03/03 03:18:54;;;;;;;4.20;1.80;;;17.20;34.80;;;;;;5073089;28;20662;-62
2023/03/03 03:21:21;;;;;;;3.88;1.80;;;17.10;34.70;;;;;;5072850;28;20234;-61
2023/03/03 03:23:48;;;;;;;2.97;1.65;;;17.10;34.70;;;;;;5073156;28;20774;-63
2023/03/03 03:26:15;;;;;;;3.97;1.98;;;17.10;34.80;;;;;;5073174;28;20254;-62
2023/03/03 03:28:42;;;;;;;2.92;1.50;;;17.10;34.80;;;;;;5072806;28;20688;-60
2023/03/03 03:31:09;;;;;;;2.28;1.70;;;17.10;34.80;;;;;;5072803;28;20246;-61
2023/03/03 03:33:37;;;;;;;3.42;1.60;;;17.10;34.80;;;;;;5072853;28;20781;-61
2023/03/03 03:36:06;;;;;;;4.78;1.88;;;17.10;34.80;;;;;;5073058;28;20195;-62
2023/03/03 03:38:35;;;;;;;4.07;1.95;;;17.10;34.90;;;;;;5072519;28;20215;-64
2023/03/03 03:41:03;;;;;;;4.63;2.10;;;17.10;34.90;;;;;;5072676;28;20273;-63
2023/03/03 03:43:30;;;;;;;4.22;1.88;;;17.10;34.80;;;;;;5072879;28;20215;-62
2023/03/03 03:45:57;;;;;;;6.90;1.77;;;17.10;34.90;;;;;;5072577;28;20709;-61
2023/03/03 03:48:25;;;;;;;3.10;1.60;;;17.10;34.90;;;;;;5072528;28;20241;-62
2023/03/03 03:50:52;;;;;;;3.90;1.52;;;17.10;34.90;;;;;;5072394;28;20260;-61
2023/03/03 03:53:20;;;;;;;5.20;1.75;;;17.10;34.90;;;;;;5072813;28;20223;-60
2023/03/03 03:55:47;;;;;;;4.22;1.73;;;17.10;35.00;;;;;;5072622;28;20190;-61
2023/03/03 03:58:15;;;;;;;3.97;1.63;;;17.10;35.00;;;;;;5072768;28;20211;-61
2023/03/03 04:00:44;;;;;;;3.25;1.70;;;17.00;34.90;;;;;;5072651;28;20191;-61
2023/03/03 04:03:13;;;;;;;4.72;1.80;;;17.10;35.00;;;;;;5072658;28;20222;-61
2023/03/03 04:05:40;;;;;;;3.78;1.90;;;17.10;35.00;;;;;;5071987;28;20186;-61
2023/03/03 04:08:07;;;;;;;3.47;1.50;;;17.10;35.00;;;;;;5072449;28;20281;-60
2023/03/03 04:10:36;;;;;;;3.05;1.30;;;17.00;34.90;;;;;;5072324;28;20280;-63
2023/03/03 04:13:03;;;;;;;2.88;1.45;;;17.00;34.90;;;;;;5072122;28;20215;-62
2023/03/03 04:15:30;;;;;;;4.68;1.52;;;17.00;35.00;;;;;;5072581;28;20248;-62
2023/03/03 04:17:57;;;;;;;5.05;1.80;;;17.00;35.00;;;;;;5072311;28;20214;-61
2023/03/03 04:20:24;;;;;;;5.15;1.80;;;17.00;35.00;;;;;;5071966;28;20226;-61
2023/03/03 04:22:51;;;;;;;3.08;1.98;;;17.00;35.70;;;;;;5070932;28;20231;-64
2023/03/03 04:25:18;;;;;;;2.60;1.63;;;17.10;35.10;;;;;;5060447;28;20198;-61
2023/03/03 04:27:47;;;;;;;3.25;1.30;;;17.00;35.00;;;;;;5071888;28;20219;-62
2023/03/03 04:30:15;;;;;;;3.60;1.50;;;17.00;35.00;;;;;;5072366;28;20631;-62
2023/03/03 04:32:43;;;;;;;2.90;1.50;;;17.00;35.10;;;;;;5071953;28;20619;-62
2023/03/03 04:35:11;;;;;;;4.22;1.65;;;17.00;35.10;;;;;;5071937;28;20649;-61
2023/03/03 04:37:38;;;;;;;3.22;1.58;;;17.00;35.10;;;;;;5071892;28;20222;-61
2023/03/03 04:40:07;;;;;;;4.80;1.88;;;17.00;35.10;;;;;;5072297;28;20225;-63
2023/03/03 04:42:35;;;;;;;3.17;1.80;;;17.00;35.20;;;;;;5071761;28;20252;-60
2023/03/03 04:45:04;;;;;;;4.25;1.70;;;17.00;35.10;;;;;;5071905;28;20722;-62
2023/03/03 04:47:32;;;;;;;5.43;1.90;;;17.00;35.20;;;;;;5072061;28;20187;-64
2023/03/03 04:49:59;;;;;;;3.28;1.60;;;17.00;35.20;;;;;;5071774;28;20878;-61
2023/03/03 04:52:26;;;;;;;4.57;1.85;;;17.00;35.10;;;;;;5071829;28;20653;-61
2023/03/03 04:54:53;;;;;;;4.18;1.50;;;17.00;35.20;;;;;;5071721;28;20187;-61
2023/03/03 04:57:20;;;;;;;3.85;1.42;;;16.90;35.10;;;;;;5071921;28;20248;-61
2023/03/03 04:59:47;;;;;;;4.25;1.67;;;17.00;35.20;;;;;;5072148;28;20195;-62
2023/03/03 05:02:16;;;;;;;4.72;1.50;;;17.00;35.20;;;;;;5072088;28;20183;-62
2023/03/03 05:04:43;;;;;;;5.85;1.50;;;16.90;35.10;;;;;;5071746;28;20652;-62
2023/03/03 05:07:10;;;;;;;4.57;1.60;;;16.90;35.10;;;;;;5071895;28;20195;-62
2023/03/03 05:09:38;;;;;;;4.80;1.75;;;16.90;35.10;;;;;;5071806;28;20284;-64
2023/03/03 05:12:05;;;;;;;5.13;1.67;;;16.90;35.20;;;;;;5071932;28;20469;-62
2023/03/03 05:14:33;;;;;;;3.65;1.60;;;16.90;35.20;;;;;;5071453;28;20214;-60
2023/03/03 05:17:00;;;;;;;3.40;1.67;;;16.90;35.20;;;;;;5071908;28;20252;-63
2023/03/03 05:19:28;;;;;;;6.22;1.60;;;16.90;35.20;;;;;;5073836;28;20219;-62
2023/03/03 05:21:56;;;;;;;4.32;1.60;;;16.90;35.20;;;;;;5075699;28;20187;-62
2023/03/03 05:24:23;;;;;;;2.15;1.52;;;16.90;35.20;;;;;;5075212;28;20301;-65
2023/03/03 05:26:50;;;;;;;3.38;1.60;;;16.90;35.10;;;;;;5075135;28;20248;-61
2023/03/03 05:29:17;;;;;;;3.78;1.40;;;16.90;35.20;;;;;;5075393;28;20340;-62
2023/03/03 05:31:45;;;;;;;4.90;1.60;;;16.90;35.20;;;;;;5075742;28;20262;-60
2023/03/03 05:34:12;;;;;;;3.88;1.38;;;16.90;35.10;;;;;;5075297;28;20219;-64
2023/03/03 05:36:40;;;;;;;3.80;1.60;;;16.90;35.10;;;;;;5075332;28;20236;-64
2023/03/03 05:39:07;;;;;;;3.55;1.65;;;16.90;35.10;;;;;;5075189;28;20634;-65
2023/03/03 05:41:35;;;;;;;3.15;1.80;;;16.90;35.10;;;;;;5075253;28;20190;-64
2023/03/03 05:44:02;;;;;;;4.40;1.90;;;16.90;35.10;;;;;;5074873;28;20215;-62
2023/03/03 05:46:30;;;;;;;3.92;1.67;;;16.90;35.10;;;;;;5075060;28;20260;-61
2023/03/03 05:48:57;;;;;;;2.13;1.60;;;17.00;35.10;;;;;;5074990;28;20226;-61
2023/03/03 05:51:24;;;;;;;2.63;1.52;;;17.00;35.10;;;;;;5074996;28;20272;-62
2023/03/03 05:53:52;;;;;;;3.95;1.73;;;17.00;35.00;;;;;;5074711;28;20218;-63
2023/03/03 05:56:19;;;;;;;2.42;1.55;;;17.10;35.00;;;;;;5074979;28;20612;-61
2023/03/03 05:58:46;;;;;;;3.38;1.60;;;17.10;35.00;;;;;;5074632;28;20272;-61
2023/03/03 06:01:13;;;;;;;2.60;1.60;;;17.20;34.90;;;;;;5074872;28;20205;-63
2023/03/03 06:03:41;;;;;;;4.65;1.55;;;17.20;34.80;;;;;;5074838;28;20279;-63
2023/03/03 06:06:08;;;;;;;3.08;1.52;;;17.30;34.80;;;;;;5074583;28;20187;-61
2023/03/03 06:08:35;;;;;;;2.40;1.50;;;17.40;34.70;;;;;;5074448;28;20710;-62
2023/03/03 06:11:04;;;;;;;2.65;1.48;;;17.50;34.50;;;;;;5074326;28;20210;-62
2023/03/03 06:13:31;;;;;;;3.88;1.40;;;17.50;34.40;;;;;;5074671;28;20615;-63
2023/03/03 06:15:58;;;;;;;5.35;1.45;;;17.60;34.40;;;;;;5074351;28;20187;-62
2023/03/03 06:18:25;;;;;;;3.80;1.60;;;17.60;34.40;;;;;;5074459;28;20218;-61
2023/03/03 06:20:53;;;;;;;3.55;1.48;;;17.70;34.50;;;;;;5074127;28;20716;-63
2023/03/03 06:23:20;;;;;;;4.70;1.80;;;17.80;34.60;;;;;;5074673;28;20635;-62
2023/03/03 06:25:48;;;;;;;4.97;1.40;;;17.80;34.50;;;;;;5074500;28;20194;-64
2023/03/03 06:28:17;;;;;;;1.73;1.30;;;17.90;34.50;;;;;;5074529;28;20215;-62
2023/03/03 06:30:44;;;;;;;3.78;1.40;;;17.90;34.40;;;;;;5073410;28;20264;-61
2023/03/03 06:33:11;;;;;;;2.08;1.40;;;18.00;34.40;;;;;;5074327;28;20224;-61
2023/03/03 06:35:38;;;;;;;5.57;1.58;;;18.00;34.30;;;;;;5074251;28;20539;-63
2023/03/03 06:38:05;;;;;;;3.88;1.67;;;18.10;34.30;;;;;;5073828;28;20754;-61
2023/03/03 06:40:32;;;;;;;3.33;1.50;;;18.10;34.30;;;;;;5074178;28;20237;-63
2023/03/03 06:43:01;;;;;;;3.22;1.45;;;18.10;34.20;;;;;;5074058;28;20275;-61
2023/03/03 06:45:29;;;;;;;4.63;1.60;;;18.10;34.20;;;;;;5073718;28;20668;-62
2023/03/03 06:47:56;;;;;;;5.03;1.55;;;18.20;34.20;;;;;;5073954;28;20218;-65
2023/03/03 06:50:23;;;;;;;4.45;1.23;;;18.20;34.10;;;;;;5073899;28;20586;-65
2023/03/03 06:52:59;;;;;;;2.47;1.35;;;18.20;34.10;;;;;;5073946;28;20280;-61
2023/03/03 06:55:26;;;;;;;3.38;1.52;;;18.30;34.10;;;;;;5073902;28;20186;-61
2023/03/03 06:57:54;;;;;;;4.25;1.20;;;18.30;34.10;;;;;;5073454;28;20221;-62
2023/03/03 07:00:25;;;;;;;2.45;1.50;;;18.30;34.10;;;;;;5073806;28;20193;-64
2023/03/03 07:02:59;;;;;;;3.35;1.23;;;18.40;34.10;;;;;;5073644;28;20218;-63
2023/03/03 07:05:28;;;;;;;4.97;1.60;;;18.40;34.10;;;;;;5073683;28;20609;-63
2023/03/03 07:07:56;;;;;;;3.05;1.48;;;18.40;34.00;;;;;;5073282;28;20221;-64
2023/03/03 07:10:25;;;;;;;3.80;1.60;;;18.40;34.10;;;;;;5073147;28;20684;-65
2023/03/03 07:12:52;;;;;;;2.17;1.17;;;18.40;34.00;;;;;;5073491;28;20215;-62
2023/03/03 07:15:23;;;;;;;3.83;1.50;;;18.50;34.00;;;;;;5073489;28;20187;-62
2023/03/03 07:17:57;;;;;;;2.88;1.48;;;18.50;34.00;;;;;;5072955;28;20247;-64
2023/03/03 07:20:32;;;;;;;3.17;1.40;;;18.50;33.90;;;;;;5073115;28;20355;-62
2023/03/03 07:22:59;;;;;;;3.33;1.52;;;18.50;33.90;;;;;;5072860;28;20214;-62
2023/03/03 07:25:31;;;;;;;4.85;1.38;;;18.60;34.00;;;;;;5073073;28;20236;-65
2023/03/03 07:28:01;;;;;;;2.63;1.50;;;18.60;33.90;;;;;;5072858;28;20731;-64
2023/03/03 07:30:29;;;;;;;4.00;1.50;;;18.60;33.90;;;;;;5072837;28;20215;-63
2023/03/03 07:32:59;;;;;;;2.50;1.40;;;18.60;33.90;;;;;;5072756;28;20811;-64
2023/03/03 07:35:36;;;;;;;2.60;1.40;;;18.60;33.90;;;;;;5072638;28;20717;-62
2023/03/03 07:38:11;;;;;;;2.05;1.25;;;18.60;33.90;;;;;;5058268;28;20215;-63
2023/03/03 07:40:41;;;;;;;3.63;1.70;;;18.60;33.80;;;;;;5055478;28;20282;-63
2023/03/03 07:43:34;;;;;;;2.75;1.30;;;18.70;33.90;;;;;;5051778;28;20578;-62
2023/03/03 07:46:22;;;;;;;2.20;1.20;;;18.70;33.90;;;;;;5067176;28;20661;-61
2023/03/03 07:48:52;;;;;;;3.13;1.40;;;18.70;33.80;;;;;;5067604;28;20226;-65
2023/03/03 07:51:24;;;;;;;3.42;1.50;;;18.70;33.70;;;;;;5063095;28;20214;-66
2023/03/03 07:53:51;;;;;;;7.57;1.58;;;18.70;33.60;;;;;;5052706;28;20408;-65
2023/03/03 07:56:28;;;;;;;6.07;1.67;;;18.70;33.60;;;;;;5052138;28;20188;-65
2023/03/03 07:58:56;;;;;;;3.97;1.45;;;18.70;33.50;;;;;;5071191;28;20766;-65
2023/03/03 08:01:41;;;;;;;3.70;1.58;;;18.70;33.50;;;;;;5067787;28;20199;-62
2023/03/03 08:04:23;;;;;;;4.10;1.70;;;18.70;33.50;;;;;;5053586;28;20223;-63
2023/03/03 08:06:53;;;;;;;3.95;1.35;;;18.60;33.60;;;;;;5058112;28;20234;-64
2023/03/03 08:09:38;;;;;;;6.68;1.50;;;18.60;33.70;;;;;;5065492;28;20291;-65
2023/03/03 08:12:38;;;;;;;3.90;1.70;;;18.60;33.90;;;;;;5070773;28;20271;-61
2023/03/03 08:15:18;;;;;;;12.63;2.35;;;18.70;34.20;;;;;;5051834;28;20221;-66
2023/03/03 08:17:47;;;;;;;6.10;1.60;;;18.70;34.10;;;;;;5070651;28;20256;-66
2023/03/03 08:20:49;;;;;;;6.07;1.50;;;18.70;34.10;;;;;;5060375;28;20903;-61
2023/03/03 08:23:19;;;;;;;7.03;1.73;;;18.80;34.10;;;;;;5063705;28;20724;-60
2023/03/03 08:25:47;;;;;;;6.38;1.90;;;18.90;34.10;;;;;;5058366;28;20214;-67
2023/03/03 08:28:15;;;;;;;5.38;1.67;;;18.90;34.10;;;;;;5077808;28;20270;-63
2023/03/03 08:30:44;;;;;;;7.15;1.80;;;18.90;34.10;;;;;;5087029;28;20224;-67
2023/03/03 08:33:12;;;;;;;12.43;2.00;;;18.90;34.10;;;;;;5062200;28;20219;-65
2023/03/03 08:35:39;;;;;;;7.80;1.65;;;18.90;34.10;;;;;;5059576;28;20199;-68
2023/03/03 08:38:08;;;;;;;4.60;1.58;;;18.90;34.10;;;;;;5064068;28;20668;-67
2023/03/03 08:40:36;;;;;;;7.32;1.67;;;18.90;34.10;;;;;;5052227;28;20276;-66
2023/03/03 08:43:03;;;;;;;2.75;1.45;;;18.90;34.10;;;;;;5046724;28;20215;-65
2023/03/03 08:45:31;;;;;;;7.05;1.65;;;19.00;34.10;;;;;;5046617;28;20199;-66
2023/03/03 08:48:00;;;;;;;6.00;1.90;;;19.10;34.10;;;;;;5055100;28;20196;-65
2023/03/03 08:50:27;;;;;;;3.25;1.42;;;19.10;34.00;;;;;;5057846;28;20211;-66
2023/03/03 08:52:54;;;;;;;4.80;2.42;;;19.10;34.00;;;;;;5066332;28;20276;-66
2023/03/03 08:55:23;;;;;;;4.30;1.83;;;19.10;33.90;;;;;;5056998;28;20195;-69
2023/03/03 08:57:50;;;;;;;4.07;1.70;;;19.20;34.10;;;;;;5064642;28;20202;-65
2023/03/03 09:00:18;;;;;;;7.38;1.63;;;19.20;34.00;;;;;;5055184;28;20253;-66
2023/03/03 09:02:46;;;;;;;6.03;2.10;;;19.10;33.80;;;;;;5058101;28;21030;-66
2023/03/03 09:05:14;;;;;;;4.03;1.60;;;19.20;33.90;;;;;;5059599;28;20727;-66
2023/03/03 09:07:42;;;;;;;9.02;1.95;;;19.20;33.90;;;;;;5061692;28;20199;-67
2023/03/03 09:10:12;;;;;;;4.50;1.73;;;19.10;33.80;;;;;;5063790;28;20241;-65
2023/03/03 09:12:43;;;;;;;4.22;1.50;;;19.10;33.80;;;;;;5056523;28;20654;-64
2023/03/03 09:15:19;;;;;;;10.48;2.15;;;19.10;33.80;;;;;;5050160;28;20345;-66
2023/03/03 09:17:47;;;;;;;4.55;1.73;;;19.10;33.90;;;;;;5058599;28;20191;-66
2023/03/03 09:20:27;;;;;;;6.65;1.63;;;19.10;33.90;;;;;;5050222;28;20231;-65
2023/03/03 09:22:55;;;;;;;3.63;1.60;;;19.10;34.00;;;;;;5050079;28;20211;-63
2023/03/03 09:25:27;;;;;;;6.50;1.92;;;19.10;34.00;;;;;;5050385;28;20231;-65
2023/03/03 09:27:56;;;;;;;6.63;1.85;;;19.10;33.90;;;;;;5063483;28;20304;-64
2023/03/03 09:30:44;;;;;;;4.88;1.80;;;19.10;33.90;;;;;;5049836;28;20246;-67
2023/03/03 09:33:24;;;;;;;7.78;1.88;;;19.10;34.00;;;;;;5049875;28;20200;-65
2023/03/03 09:35:55;;;;;;;4.85;1.80;;;19.10;34.00;;;;;;5049911;28;20195;-66
2023/03/03 09:38:29;;;;;;;4.57;1.85;;;19.10;34.00;;;;;;5057320;28;20223;-65
2023/03/03 09:41:16;;;;;;;3.85;1.73;;;19.20;34.20;;;;;;5051863;28;20787;-67
2023/03/03 09:43:54;;;;;;;14.82;2.88;;;19.20;34.40;;;;;;5062330;28;20226;-64
2023/03/03 09:46:33;;;;;;;11.18;6.63;;;19.30;34.80;;;;;;5061263;28;20200;-65
2023/03/03 09:49:10;;;;;;;12.00;4.50;;;19.40;35.50;;;;;;5055255;28;20234;-65
2023/03/03 09:51:53;;;;;;;8.13;3.65;;;19.40;35.00;;;;;;5049335;28;20226;-63
2023/03/03 09:54:42;;;;;;;8.68;3.08;;;19.60;35.20;;;;;;5051195;28;20227;-67
2023/03/03 09:57:14;;;;;;;7.78;2.65;;;19.70;35.10;;;;;;5060277;28;20198;-65
2023/03/03 09:59:57;;;;;;;7.47;2.40;;;19.90;35.20;;;;;;5050294;28;20223;-64
2023/03/03 10:02:37;;;;;;;5.10;2.60;;;20.00;34.90;;;;;;5049503;28;20228;-66
2023/03/03 10:05:27;;;;;;;7.47;2.75;;;20.00;34.80;;;;;;5048263;28;20230;-65
2023/03/03 10:08:03;;;;;;;7.55;3.28;;;20.00;35.20;;;;;;5057546;28;20716;-65
2023/03/03 10:10:45;;;;;;;8.00;2.35;;;20.00;35.60;;;;;;5049144;28;20222;-65
2023/03/03 10:13:41;;;;;;;8.13;2.20;;;20.00;35.80;;;;;;5049448;28;20852;-65
2023/03/03 10:16:32;;;;;;;5.90;2.00;;;20.00;36.00;;;;;;5049141;28;20237;-65
2023/03/03 10:19:02;;;;;;;5.18;2.03;;;20.00;35.80;;;;;;5049210;28;20289;-65
2023/03/03 10:21:36;;;;;;;7.68;2.40;;;20.00;35.60;;;;;;5048625;28;20235;-66
2023/03/03 10:24:18;;;;;;;9.63;2.05;;;19.90;35.60;;;;;;5048735;28;20297;-65
2023/03/03 10:27:05;;;;;;;10.98;2.40;;;19.90;35.70;;;;;;5052731;28;20203;-65
2023/03/03 10:29:40;;;;;;;10.93;2.22;;;19.80;35.70;;;;;;5052322;28;20226;-65
2023/03/03 10:32:39;;;;;;;8.48;1.85;;;19.80;35.60;;;;;;5049127;28;20215;-66
2023/03/03 10:35:25;;;;;;;5.88;2.00;;;19.80;35.80;;;;;;5048353;28;20219;-66
2023/03/03 10:38:06;;;;;;;5.47;2.17;;;19.70;35.70;;;;;;5052665;28;21112;-65
2023/03/03 10:40:40;;;;;;;10.88;2.30;;;19.80;35.80;;;;;;5061824;28;20227;-65
2023/03/03 10:43:30;;;;;;;3.85;1.83;;;19.80;35.80;;;;;;5058926;28;20665;-65
2023/03/03 10:46:28;;;;;;;6.50;1.98;;;19.80;35.80;;;;;;5061488;28;20202;-65
2023/03/03 10:49:33;;;;;;;4.90;1.70;;;19.80;35.70;;;;;;5041132;28;20233;-65
2023/03/03 10:52:19;;;;;;;5.72;2.25;;;19.80;35.60;;;;;;5043880;28;20238;-64
2023/03/03 10:55:04;;;;;;;3.67;1.80;;;19.80;35.60;;;;;;5048148;28;20636;-66
2023/03/03 10:57:38;;;;;;;8.30;1.80;;;19.80;35.60;;;;;;5065404;28;20658;-66
2023/03/03 11:00:22;;;;;;;5.45;2.08;;;19.80;35.60;;;;;;5050811;28;20226;-66
2023/03/03 11:03:39;;;;;;;6.28;1.85;;;19.80;35.40;;;;;;5051246;28;20206;-64
2023/03/03 11:06:15;;;;;;;5.80;2.05;;;19.80;35.40;;;;;;5033685;28;20203;-66
2023/03/03 11:08:47;;;;;;;6.28;1.90;;;19.90;35.50;;;;;;5033457;28;20211;-66
2023/03/03 11:11:20;;;;;;;4.20;1.88;;;19.90;35.40;;;;;;5038288;28;20234;-65
2023/03/03 11:13:53;;;;;;;7.28;1.75;;;19.90;35.20;;;;;;5050506;28;20220;-65
2023/03/03 11:16:41;;;;;;;7.15;1.85;;;19.90;35.10;;;;;;5047513;28;20210;-64
2023/03/03 11:19:24;;;;;;;3.50;1.40;;;19.90;35.10;;;;;;5056205;28;20236;-65
2023/03/03 11:22:00;;;;;;;5.18;1.50;;;19.90;35.10;;;;;;5048098;28;20206;-65
2023/03/03 11:24:38;;;;;;;6.88;1.65;;;19.90;35.00;;;;;;5048051;28;20227;-64
2023/03/03 11:27:27;;;;;;;4.72;1.77;;;19.90;35.00;;;;;;5061066;28;20205;-65
2023/03/03 11:30:18;;;;;;;7.95;1.92;;;19.90;34.90;;;;;;5061509;28;20278;-65
2023/03/03 11:32:53;;;;;;;6.82;1.92;;;19.90;34.90;;;;;;5054133;28;20649;-65
2023/03/03 11:35:26;;;;;;;5.30;2.03;;;19.90;34.90;;;;;;5051689;28;20223;-65
2023/03/03 11:38:17;;;;;;;3.72;1.73;;;19.90;34.90;;;;;;5051018;28;20210;-65
2023/03/03 11:40:49;;;;;;;6.03;2.00;;;19.90;34.90;;;;;;5060013;28;20218;-64
2023/03/03 11:43:22;;;;;;;7.35;1.70;;;19.90;34.80;;;;;;5065910;28;20203;-65
2023/03/03 11:45:53;;;;;;;3.95;1.50;;;19.90;34.80;;;;;;5061643;28;20223;-65
2023/03/03 11:48:29;;;;;;;3.90;1.90;;;19.90;34.70;;;;;;5061834;28;20220;-64
2023/03/03 11:51:03;;;;;;;3.53;1.48;;;19.90;34.70;;;;;;5056371;28;20250;-64
2023/03/03 11:53:42;;;;;;;4.60;1.65;;;19.90;34.70;;;;;;5061040;28;20234;-65
2023/03/03 11:56:20;;;;;;;4.82;1.67;;;19.90;34.70;;;;;;5061472;28;20197;-65
2023/03/03 11:58:56;;;;;;;3.70;1.70;;;19.90;34.70;;;;;;5064294;28;20199;-64
2023/03/03 12:01:31;;;;;;;3.47;1.73;;;19.90;34.70;;;;;;5063733;28;20206;-76
2023/03/03 12:04:03;;;;;;;2.92;1.20;;;19.90;34.90;;;;;;5064304;28;20194;-76
2023/03/03 12:06:39;;;;;;;4.93;1.80;;;19.80;35.00;;;;;;5061847;28;20198;-75
2023/03/03 12:09:39;;;;;;;5.05;1.80;;;19.70;35.10;;;;;;5063825;28;20631;-76
2023/03/03 12:12:14;;;;;;;3.85;1.60;;;19.70;35.20;;;;;;5064603;28;20217;-76
2023/03/03 12:14:57;;;;;;;3.88;1.73;;;19.60;35.30;;;;;;5064659;28;20267;-74
2023/03/03 12:17:51;;;;;;;3.33;1.85;;;19.60;35.30;;;;;;5063607;28;20202;-76
2023/03/03 12:20:25;;;;;;;5.32;1.75;;;19.60;35.40;;;;;;5064489;28;20238;-77
2023/03/03 12:23:03;;;;;;;5.85;1.80;;;19.60;35.50;;;;;;5064086;28;20207;-77
2023/03/03 12:25:37;;;;;;;4.95;1.75;;;19.60;35.50;;;;;;5063213;28;20218;-76
2023/03/03 12:28:10;;;;;;;5.63;1.83;;;19.60;35.50;;;;;;5059723;28;20205;-76
2023/03/03 12:31:07;;;;;;;5.07;1.70;;;19.60;35.50;;;;;;5064078;28;20226;-75
2023/03/03 12:33:51;;;;;;;5.18;2.00;;;19.60;35.50;;;;;;5046403;28;20292;-77
2023/03/03 12:36:36;;;;;;;7.88;2.03;;;19.60;35.50;;;;;;5064941;28;20205;-77
2023/03/03 12:39:11;;;;;;;7.80;1.73;;;19.60;35.50;;;;;;5064688;28;20832;-75
2023/03/03 12:41:50;;;;;;;6.63;1.85;;;19.60;35.50;;;;;;5062176;28;20292;-77
2023/03/03 12:44:24;;;;;;;5.45;1.90;;;19.60;35.50;;;;;;5065096;28;20617;-77
2023/03/03 12:47:00;;;;;;;8.27;1.70;;;19.60;35.50;;;;;;5062171;28;20305;-76
2023/03/03 12:49:38;;;;;;;4.95;1.50;;;19.70;35.60;;;;;;5065569;28;20372;-76
2023/03/03 12:52:19;;;;;;;6.30;1.55;;;19.70;35.60;;;;;;5065263;28;20217;-76
2023/03/03 12:55:04;;;;;;;3.95;1.63;;;19.70;35.60;;;;;;5063235;28;20708;-76
2023/03/03 12:57:43;;;;;;;3.97;1.85;;;19.70;35.50;;;;;;5065258;28;20194;-77
2023/03/03 13:00:24;;;;;;;7.20;1.88;;;19.70;35.70;;;;;;5064119;28;20218;-76
2023/03/03 13:03:00;;;;;;;10.18;1.52;;;19.70;35.60;;;;;;5064613;28;20210;-75
2023/03/03 13:05:35;;;;;;;4.60;1.70;;;19.70;35.60;;;;;;5060781;28;20230;-75
2023/03/03 13:08:18;;;;;;;9.90;1.90;;;19.80;36.40;;;;;;5050438;28;20206;-76
2023/03/03 13:10:49;;;;;;;190.13;24.98;;;19.70;35.60;;;;;;5059295;28;20826;-78
2023/03/03 13:13:27;;;;;;;27.05;5.28;;;19.70;35.90;;;;;;5052160;28;20218;-78